Coulee Dam, Washington
Current Conditions -  °F | °C
As of 7:53 PM on Saturday 25 Oct 2014 (Local Time) from KOMK Reporting Station
Overcast Overcast  
Wind Chill: 49°   Ceiling: 7500
Heat Index: 49°   Visibility: 10mi
Dew Point: 47°   Wind: 0mph
Humidity: 93%   Direction: NA
Pressure: 29.42"   Gusts: NA
Location:  47.97°N, 118.98°W
Report Text: KOMK 260253Z AUTO 00000KT 10SM SCT055 OVC075 09/08 A2942 RMK AO2 RAE42 SLP966 P0002 60003 T00940083 56019
Loading
Personal Weather Stations






























Interactive Weather Map
Tropical Storm Tracking
New forecast layout! Learn more

10-Day Weather Forecast

Advertisements
Track Severe Weather on mobile